createdAt,value
2023-05-18T00:02:01.883Z,10.96
2023-05-18T00:04:29.772Z,10.90
2023-05-18T00:06:57.196Z,10.88
2023-05-18T00:09:27.419Z,10.94
2023-05-18T00:11:54.464Z,10.94
2023-05-18T00:14:21.612Z,10.96
2023-05-18T00:16:48.960Z,10.96
2023-05-18T00:19:16.235Z,10.90
2023-05-18T00:21:43.859Z,10.90
2023-05-18T00:24:13.941Z,10.92
2023-05-18T00:26:42.751Z,10.88
2023-05-18T00:29:12.741Z,10.85
2023-05-18T00:31:40.006Z,10.83
2023-05-18T00:34:08.184Z,10.83
2023-05-18T00:36:36.226Z,10.79
2023-05-18T00:39:04.569Z,10.80
2023-05-18T00:41:34.304Z,10.79
2023-05-18T00:44:01.546Z,10.78
2023-05-18T00:46:31.978Z,10.71
2023-05-18T00:48:59.509Z,10.70
2023-05-18T00:51:26.580Z,10.65
2023-05-18T00:53:54.140Z,10.64
2023-05-18T00:56:23.770Z,10.59
2023-05-18T00:58:57.414Z,10.66
2023-05-18T01:01:29.010Z,10.64
2023-05-18T01:03:57.880Z,10.62
2023-05-18T01:06:27.918Z,10.55
2023-05-18T01:08:57.375Z,10.51
2023-05-18T01:11:36.322Z,10.40
2023-05-18T01:14:17.163Z,10.24
2023-05-18T01:17:03.589Z,10.24
2023-05-18T01:19:42.625Z,10.21
2023-05-18T01:22:29.724Z,10.14
2023-05-18T01:25:14.824Z,10.15
2023-05-18T01:27:42.426Z,10.07
2023-05-18T01:30:09.852Z,10.05
2023-05-18T01:32:42.504Z,10.10
2023-05-18T01:35:09.941Z,10.06
2023-05-18T01:37:36.968Z,10.11
2023-05-18T01:40:05.629Z,10.14
2023-05-18T01:42:34.376Z,10.04
2023-05-18T01:45:08.313Z,9.99
2023-05-18T01:47:35.310Z,10.06
2023-05-18T01:50:09.748Z,10.07
2023-05-18T01:52:40.667Z,10.07
2023-05-18T01:55:08.221Z,10.07
2023-05-18T01:57:35.560Z,10.05
2023-05-18T02:00:04.368Z,10.06
2023-05-18T02:02:44.368Z,10.03
2023-05-18T02:05:13.849Z,9.98
2023-05-18T02:07:41.049Z,9.95
2023-05-18T02:10:09.293Z,9.45
2023-05-18T02:12:36.456Z,9.55
2023-05-18T02:15:05.754Z,9.69
2023-05-18T02:17:38.413Z,9.54
2023-05-18T02:20:10.359Z,9.65
2023-05-18T02:22:37.453Z,9.68
2023-05-18T02:25:07.525Z,9.75
2023-05-18T02:27:36.173Z,9.74
2023-05-18T02:30:08.858Z,9.68
2023-05-18T02:32:39.329Z,9.69
2023-05-18T02:35:07.228Z,9.69
2023-05-18T02:37:34.610Z,9.74
2023-05-18T02:40:01.761Z,9.79
2023-05-18T02:42:29.837Z,9.81
2023-05-18T02:44:57.062Z,9.66
2023-05-18T02:47:24.318Z,9.37
2023-05-18T02:49:51.806Z,9.41
2023-05-18T02:52:19.254Z,9.56
2023-05-18T02:54:46.601Z,9.51
2023-05-18T02:57:19.050Z,9.46
2023-05-18T02:59:58.848Z,8.85
2023-05-18T03:02:27.850Z,9.09
2023-05-18T03:04:57.550Z,9.30
2023-05-18T03:07:25.024Z,9.15
2023-05-18T03:09:52.135Z,9.12
2023-05-18T03:12:19.244Z,9.10
2023-05-18T03:14:46.893Z,9.00
2023-05-18T03:17:13.945Z,8.93
2023-05-18T03:19:40.986Z,9.14
2023-05-18T03:22:08.271Z,9.20
2023-05-18T03:24:40.312Z,9.25
2023-05-18T03:27:13.170Z,9.27
2023-05-18T03:29:40.592Z,9.35
2023-05-18T03:32:07.839Z,9.40
2023-05-18T03:34:35.278Z,9.38
2023-05-18T03:37:02.358Z,9.46
2023-05-18T03:39:30.877Z,9.54
2023-05-18T03:41:58.086Z,9.38
2023-05-18T03:44:25.130Z,9.17
2023-05-18T03:46:52.405Z,9.27
2023-05-18T03:49:19.551Z,9.21
2023-05-18T03:51:46.647Z,9.25
2023-05-18T03:54:15.542Z,9.30
2023-05-18T03:56:42.588Z,9.22
2023-05-18T03:59:10.316Z,9.32
2023-05-18T04:01:38.505Z,9.35
2023-05-18T04:04:05.661Z,8.91
2023-05-18T04:06:35.375Z,8.88
2023-05-18T04:09:04.839Z,9.10
2023-05-18T04:11:32.041Z,9.39
2023-05-18T04:14:01.045Z,9.50
2023-05-18T04:16:28.700Z,9.20
2023-05-18T04:18:55.972Z,9.40
2023-05-18T04:21:23.270Z,9.65
2023-05-18T04:23:50.337Z,9.81
2023-05-18T04:26:20.361Z,9.94
2023-05-18T04:28:47.659Z,9.57
2023-05-18T04:31:14.698Z,9.60
2023-05-18T04:33:42.207Z,9.75
2023-05-18T04:36:09.714Z,9.97
2023-05-18T04:38:36.790Z,10.20
2023-05-18T04:41:07.775Z,10.39
2023-05-18T04:43:36.583Z,10.21
2023-05-18T04:46:04.165Z,10.35
2023-05-18T04:48:33.410Z,10.33
2023-05-18T04:51:04.960Z,10.46
2023-05-18T04:53:33.674Z,10.59
2023-05-18T04:56:01.665Z,10.78
2023-05-18T04:58:30.414Z,10.96
2023-05-18T05:00:57.852Z,11.15
2023-05-18T05:03:25.179Z,11.37
2023-05-18T05:05:52.338Z,11.41
2023-05-18T05:08:19.336Z,11.51
2023-05-18T05:10:46.636Z,11.59
2023-05-18T05:13:13.855Z,11.85
2023-05-18T05:15:41.210Z,11.77
2023-05-18T05:18:08.743Z,12.10
2023-05-18T05:20:35.930Z,12.35
2023-05-18T05:23:03.131Z,12.42
2023-05-18T05:25:30.630Z,12.12
2023-05-18T05:27:57.912Z,11.96
2023-05-18T05:30:25.204Z,12.09
2023-05-18T05:32:52.439Z,11.56
2023-05-18T05:35:20.905Z,11.40
2023-05-18T05:37:48.438Z,11.83
2023-05-18T05:40:17.126Z,10.87
2023-05-18T05:42:46.458Z,10.73
2023-05-18T05:45:13.803Z,10.82
2023-05-18T05:47:46.571Z,11.11
2023-05-18T05:50:14.682Z,11.61
2023-05-18T05:52:42.192Z,11.96
2023-05-18T05:55:10.172Z,11.02
2023-05-18T05:57:37.323Z,10.65
2023-05-18T06:00:06.172Z,10.85
2023-05-18T06:02:48.521Z,10.63
2023-05-18T06:05:20.078Z,10.34
2023-05-18T06:07:47.220Z,10.45
2023-05-18T06:10:14.261Z,11.63
2023-05-18T06:12:41.775Z,11.31
2023-05-18T06:15:09.456Z,10.60
2023-05-18T06:17:39.277Z,11.16
2023-05-18T06:20:09.732Z,11.64
2023-05-18T06:22:37.157Z,11.78
2023-05-18T06:25:30.418Z,11.15
2023-05-18T06:28:08.902Z,11.01
2023-05-18T06:30:40.872Z,10.61
2023-05-18T06:33:14.808Z,11.47
2023-05-18T06:35:41.937Z,11.39
2023-05-18T06:38:09.181Z,11.74
2023-05-18T06:40:36.739Z,11.46
2023-05-18T06:43:03.843Z,11.91
2023-05-18T06:45:38.465Z,11.95
2023-05-18T06:48:18.486Z,11.18
2023-05-18T06:50:45.586Z,11.63
2023-05-18T06:53:13.948Z,12.09
2023-05-18T06:55:41.404Z,11.63
2023-05-18T06:58:08.517Z,11.82
2023-05-18T07:00:35.760Z,11.76
2023-05-18T07:03:03.832Z,11.87
2023-05-18T07:05:31.181Z,11.69
2023-05-18T07:07:58.432Z,11.24
2023-05-18T07:10:25.675Z,11.36
2023-05-18T07:12:52.894Z,12.03
2023-05-18T07:15:19.952Z,12.18
2023-05-18T07:17:47.064Z,12.76
2023-05-18T07:20:14.158Z,13.10
2023-05-18T07:22:41.262Z,13.11
2023-05-18T07:25:08.675Z,14.10
2023-05-18T07:27:35.815Z,14.08
2023-05-18T07:30:02.893Z,13.43
2023-05-18T07:32:29.960Z,13.07
2023-05-18T07:34:57.007Z,12.84
2023-05-18T07:37:24.015Z,13.59
2023-05-18T07:39:52.580Z,13.60
2023-05-18T07:42:19.647Z,13.07
2023-05-18T07:44:46.728Z,12.49
2023-05-18T07:47:13.771Z,13.36
2023-05-18T07:49:40.850Z,13.53
2023-05-18T07:52:08.465Z,14.66
2023-05-18T07:54:35.744Z,14.93
2023-05-18T07:57:04.264Z,15.11
2023-05-18T07:59:31.366Z,14.83
2023-05-18T08:02:00.094Z,14.93
2023-05-18T08:04:27.318Z,14.25
2023-05-18T08:06:55.530Z,14.78
2023-05-18T08:09:22.531Z,15.36
2023-05-18T08:11:51.174Z,15.21
2023-05-18T08:14:18.268Z,15.03
2023-05-18T08:16:45.623Z,15.09
2023-05-18T08:19:12.918Z,15.69
2023-05-18T08:21:40.139Z,14.55
2023-05-18T08:24:11.985Z,14.77
2023-05-18T08:26:43.441Z,14.73
2023-05-18T08:29:11.888Z,14.54
2023-05-18T08:31:45.357Z,14.52
2023-05-18T08:34:15.184Z,13.97
2023-05-18T08:36:45.072Z,14.88
2023-05-18T08:39:12.890Z,14.91
2023-05-18T08:41:55.193Z,14.88
2023-05-18T08:44:24.383Z,14.81
2023-05-18T08:46:51.631Z,15.03
2023-05-18T08:49:19.543Z,14.80
2023-05-18T08:51:55.000Z,15.66
2023-05-18T08:54:22.606Z,15.94
2023-05-18T08:56:49.723Z,16.06
2023-05-18T08:59:18.847Z,15.75
2023-05-18T09:01:45.976Z,14.91
2023-05-18T09:04:13.037Z,13.83
2023-05-18T09:06:40.094Z,14.74
2023-05-18T09:09:07.542Z,15.18
2023-05-18T09:11:35.631Z,14.15
2023-05-18T09:14:02.774Z,14.04
2023-05-18T09:16:30.675Z,13.62
2023-05-18T09:18:57.847Z,14.23
2023-05-18T09:21:24.973Z,14.54
2023-05-18T09:23:52.430Z,15.72
2023-05-18T09:26:19.879Z,15.93
2023-05-18T09:28:49.526Z,16.32
2023-05-18T09:31:17.680Z,17.21
2023-05-18T09:33:45.726Z,15.52
2023-05-18T09:36:13.088Z,15.59
2023-05-18T09:38:46.225Z,16.22
2023-05-18T09:41:15.254Z,16.05
2023-05-18T09:43:43.893Z,15.93
2023-05-18T09:46:11.697Z,15.15
2023-05-18T09:48:43.891Z,15.23
2023-05-18T09:51:16.392Z,15.47
2023-05-18T09:53:58.360Z,14.94
2023-05-18T09:56:27.028Z,14.96
2023-05-18T09:58:54.358Z,14.83
2023-05-18T10:01:22.078Z,14.49
2023-05-18T10:03:50.008Z,14.56
2023-05-18T10:06:21.466Z,13.84
2023-05-18T10:08:48.911Z,14.04
2023-05-18T10:11:18.620Z,13.76
2023-05-18T10:13:47.019Z,14.24
2023-05-18T10:16:15.097Z,13.88
2023-05-18T10:18:42.320Z,13.74
2023-05-18T10:21:09.401Z,14.35
2023-05-18T10:23:36.924Z,14.34
2023-05-18T10:26:07.505Z,14.98
2023-05-18T10:28:39.168Z,14.67
2023-05-18T10:31:06.331Z,14.18
2023-05-18T10:33:33.475Z,14.18
2023-05-18T10:36:00.628Z,14.48
2023-05-18T10:38:28.179Z,14.14
2023-05-18T10:40:56.527Z,14.71
2023-05-18T10:43:27.662Z,15.73
2023-05-18T10:46:01.210Z,15.55
2023-05-18T10:48:30.401Z,15.57
2023-05-18T10:50:59.212Z,15.41
2023-05-18T10:53:29.992Z,16.37
2023-05-18T10:55:57.118Z,16.04
2023-05-18T10:58:25.912Z,15.79
2023-05-18T11:01:03.346Z,14.70
2023-05-18T11:03:30.341Z,15.10
2023-05-18T11:06:09.062Z,15.67
2023-05-18T11:08:48.955Z,15.75
2023-05-18T11:11:18.615Z,16.38
2023-05-18T11:13:50.039Z,16.39
2023-05-18T11:16:17.573Z,16.54
2023-05-18T11:18:49.731Z,17.47
2023-05-18T11:21:28.815Z,16.37
2023-05-18T11:24:32.850Z,15.99
2023-05-18T11:27:19.702Z,16.05
2023-05-18T11:29:47.662Z,15.95
2023-05-18T11:32:29.718Z,16.34
2023-05-18T11:34:57.226Z,16.78
2023-05-18T11:37:45.064Z,16.36
2023-05-18T11:40:13.766Z,15.47
2023-05-18T11:42:40.786Z,15.24
2023-05-18T11:45:11.501Z,15.50
2023-05-18T11:47:40.548Z,14.63
2023-05-18T11:50:08.817Z,14.09
2023-05-18T11:52:48.773Z,14.09
2023-05-18T11:55:17.411Z,14.08
2023-05-18T11:57:47.802Z,14.41
2023-05-18T12:00:18.533Z,14.61
2023-05-18T12:02:46.956Z,15.18
2023-05-18T12:05:14.758Z,15.15
2023-05-18T12:07:41.897Z,15.34
2023-05-18T12:10:10.999Z,16.15
2023-05-18T12:12:38.383Z,15.61
2023-05-18T12:15:07.137Z,15.03
2023-05-18T12:17:40.921Z,15.02
2023-05-18T12:20:09.968Z,15.49
2023-05-18T12:22:37.503Z,15.49
2023-05-18T12:25:04.781Z,15.39
2023-05-18T12:27:32.672Z,16.05
2023-05-18T12:29:59.897Z,15.77
2023-05-18T12:32:30.156Z,16.07
2023-05-18T12:34:57.171Z,14.92
2023-05-18T12:37:33.801Z,15.98
2023-05-18T12:40:07.249Z,15.80
2023-05-18T12:42:35.289Z,15.78
2023-05-18T12:45:05.737Z,15.92
2023-05-18T12:47:34.047Z,15.51
2023-05-18T12:50:04.542Z,15.30
2023-05-18T12:52:31.524Z,15.54
2023-05-18T12:55:01.576Z,15.11
2023-05-18T12:57:31.133Z,15.67
2023-05-18T12:59:58.329Z,15.53
2023-05-18T13:02:28.104Z,15.41
2023-05-18T13:05:09.729Z,16.28
2023-05-18T13:07:43.763Z,15.88
2023-05-18T13:10:12.504Z,15.84
2023-05-18T13:12:46.828Z,16.84
2023-05-18T13:15:18.613Z,16.29
2023-05-18T13:18:01.441Z,16.38
2023-05-18T13:20:37.980Z,15.96
2023-05-18T13:23:07.220Z,16.13
2023-05-18T13:25:34.262Z,16.15
2023-05-18T13:28:04.264Z,16.77
2023-05-18T13:30:31.458Z,16.44
2023-05-18T13:32:59.749Z,16.32
2023-05-18T13:35:26.787Z,15.63
2023-05-18T13:37:53.821Z,15.91
2023-05-18T13:40:21.378Z,16.38
2023-05-18T13:42:48.273Z,14.99
2023-05-18T13:45:16.326Z,15.06
2023-05-18T13:47:45.932Z,15.37
2023-05-18T13:50:13.080Z,15.51
2023-05-18T13:52:40.086Z,15.66
2023-05-18T13:55:09.028Z,16.74
2023-05-18T13:57:37.094Z,17.01
2023-05-18T14:00:13.950Z,17.12
2023-05-18T14:02:41.655Z,17.09
2023-05-18T14:05:09.391Z,16.16
2023-05-18T14:07:42.683Z,16.52
2023-05-18T14:10:10.604Z,16.23
2023-05-18T14:12:37.742Z,16.17
2023-05-18T14:15:05.109Z,16.10
2023-05-18T14:17:32.933Z,16.06
2023-05-18T14:20:00.109Z,15.69
2023-05-18T14:22:27.594Z,16.28
2023-05-18T14:24:54.608Z,15.55
2023-05-18T14:27:21.641Z,15.46
2023-05-18T14:29:49.089Z,16.06
2023-05-18T14:32:16.337Z,15.53
2023-05-18T14:34:43.343Z,15.68
2023-05-18T14:37:10.431Z,14.91
2023-05-18T14:39:39.133Z,15.45
2023-05-18T14:42:06.469Z,16.27
2023-05-18T14:44:33.577Z,16.96
2023-05-18T14:47:00.837Z,17.62
2023-05-18T14:49:27.922Z,17.53
2023-05-18T14:51:55.444Z,17.40
2023-05-18T14:54:22.926Z,17.47
2023-05-18T14:56:50.222Z,17.76
2023-05-18T14:59:17.564Z,17.21
2023-05-18T15:01:44.606Z,17.56
2023-05-18T15:04:12.369Z,17.82
2023-05-18T15:06:39.641Z,17.93
2023-05-18T15:09:08.370Z,17.15
2023-05-18T15:11:35.328Z,16.88
2023-05-18T15:14:02.256Z,16.92
2023-05-18T15:16:29.387Z,17.82
2023-05-18T15:18:56.774Z,18.35
2023-05-18T15:21:24.098Z,18.78
2023-05-18T15:23:51.100Z,18.49
2023-05-18T15:26:17.980Z,18.32
2023-05-18T15:28:45.254Z,17.63
2023-05-18T15:31:12.249Z,17.63
2023-05-18T15:33:42.422Z,17.72
2023-05-18T15:36:10.671Z,17.13
2023-05-18T15:38:37.672Z,16.68
2023-05-18T15:41:04.794Z,16.89
2023-05-18T15:43:32.526Z,17.22
2023-05-18T15:45:59.454Z,17.73
2023-05-18T15:48:26.398Z,18.17
2023-05-18T15:50:53.364Z,18.03
2023-05-18T15:53:20.356Z,18.50
2023-05-18T15:55:49.369Z,18.07
2023-05-18T15:58:16.987Z,18.47
2023-05-18T16:00:44.265Z,17.84
2023-05-18T16:03:12.566Z,18.12
2023-05-18T16:05:39.840Z,17.42
2023-05-18T16:08:06.863Z,17.94
2023-05-18T16:10:33.963Z,17.77
2023-05-18T16:13:05.988Z,18.23
2023-05-18T16:15:34.333Z,17.46
2023-05-18T16:18:01.842Z,16.88
2023-05-18T16:20:29.261Z,16.71
2023-05-18T16:22:56.421Z,16.64
2023-05-18T16:25:24.114Z,17.12
2023-05-18T16:27:51.046Z,17.06
2023-05-18T16:30:18.226Z,17.52
2023-05-18T16:32:45.375Z,16.88
2023-05-18T16:35:12.410Z,17.26
2023-05-18T16:37:39.455Z,17.49
2023-05-18T16:40:07.227Z,17.84
2023-05-18T16:42:34.325Z,17.94
2023-05-18T16:45:01.463Z,17.89
2023-05-18T16:47:28.780Z,17.35
2023-05-18T16:49:55.761Z,17.55
2023-05-18T16:52:22.659Z,17.56
2023-05-18T16:54:49.633Z,17.71
2023-05-18T16:57:17.892Z,17.96
2023-05-18T16:59:44.949Z,18.39
2023-05-18T17:02:17.159Z,18.59
2023-05-18T17:04:49.783Z,18.72
2023-05-18T17:07:17.105Z,18.59
2023-05-18T17:09:44.352Z,18.27
2023-05-18T17:12:11.586Z,18.49
2023-05-18T17:14:38.562Z,18.73
2023-05-18T17:17:05.939Z,18.71
2023-05-18T17:19:35.112Z,18.71
2023-05-18T17:22:03.439Z,18.54
2023-05-18T17:24:30.910Z,18.43
2023-05-18T17:26:58.117Z,18.74
2023-05-18T17:29:25.397Z,18.86
2023-05-18T17:31:52.423Z,18.77
2023-05-18T17:34:19.591Z,18.69
2023-05-18T17:36:46.656Z,18.42
2023-05-18T17:39:15.887Z,18.25
2023-05-18T17:41:44.039Z,18.36
2023-05-18T17:44:14.341Z,18.44
2023-05-18T17:46:41.943Z,18.25
2023-05-18T17:49:09.167Z,18.49
2023-05-18T17:51:36.358Z,18.31
2023-05-18T17:54:03.484Z,18.45
2023-05-18T17:56:31.838Z,18.55
2023-05-18T17:58:59.300Z,18.45
2023-05-18T18:01:27.444Z,18.63
2023-05-18T18:03:55.751Z,18.46
2023-05-18T18:06:23.075Z,18.63
2023-05-18T18:08:50.881Z,18.72
2023-05-18T18:11:18.179Z,18.78
2023-05-18T18:13:45.629Z,18.72
2023-05-18T18:16:13.056Z,18.73
2023-05-18T18:18:40.236Z,18.73
2023-05-18T18:21:07.401Z,18.70
2023-05-18T18:23:35.577Z,18.63
2023-05-18T18:26:02.730Z,18.55
2023-05-18T18:28:29.968Z,18.62
2023-05-18T18:30:57.217Z,18.58
2023-05-18T18:33:26.187Z,18.62
2023-05-18T18:35:54.186Z,18.56
2023-05-18T18:38:21.280Z,18.45
2023-05-18T18:40:48.451Z,18.39
2023-05-18T18:43:15.957Z,18.42
2023-05-18T18:45:43.044Z,18.67
2023-05-18T18:48:10.152Z,18.52
2023-05-18T18:50:37.333Z,18.37
2023-05-18T18:53:04.651Z,18.39
2023-05-18T18:55:32.087Z,18.41
2023-05-18T18:58:01.469Z,18.44
2023-05-18T19:00:28.727Z,17.98
2023-05-18T19:02:56.207Z,17.86
2023-05-18T19:05:24.692Z,17.80
2023-05-18T19:07:55.304Z,17.58
2023-05-18T19:10:22.998Z,16.64
2023-05-18T19:12:50.452Z,16.79
2023-05-18T19:15:17.757Z,16.71
2023-05-18T19:17:52.219Z,16.92
2023-05-18T19:20:19.640Z,17.23
2023-05-18T19:22:46.803Z,17.36
2023-05-18T19:25:13.944Z,16.75
2023-05-18T19:27:41.161Z,16.45
2023-05-18T19:30:08.767Z,16.76
2023-05-18T19:32:36.002Z,16.07
2023-05-18T19:35:03.133Z,16.03
2023-05-18T19:37:30.220Z,16.15
2023-05-18T19:39:57.344Z,15.76
2023-05-18T19:42:24.467Z,16.22
2023-05-18T19:44:51.664Z,16.38
2023-05-18T19:47:18.796Z,16.37
2023-05-18T19:49:46.416Z,16.23
2023-05-18T19:52:13.498Z,16.33
2023-05-18T19:54:40.633Z,16.28
2023-05-18T19:57:07.893Z,16.03
2023-05-18T19:59:34.993Z,15.85
2023-05-18T20:02:05.212Z,16.06
2023-05-18T20:04:33.752Z,15.83
2023-05-18T20:07:01.061Z,16.08
2023-05-18T20:09:28.478Z,16.02
2023-05-18T20:11:58.771Z,16.02
2023-05-18T20:14:27.043Z,16.09
2023-05-18T20:16:56.303Z,16.47
2023-05-18T20:19:23.669Z,16.41
2023-05-18T20:21:50.944Z,16.34
2023-05-18T20:24:17.979Z,15.93
2023-05-18T20:26:45.137Z,15.84
2023-05-18T20:29:12.746Z,15.77
2023-05-18T20:31:40.688Z,16.18
2023-05-18T20:34:07.864Z,16.42
2023-05-18T20:36:36.022Z,16.40
2023-05-18T20:39:03.970Z,16.63
2023-05-18T20:41:31.049Z,16.60
2023-05-18T20:44:02.293Z,16.39
2023-05-18T20:46:34.020Z,15.89
2023-05-18T20:49:01.323Z,15.97
2023-05-18T20:51:28.561Z,16.17
2023-05-18T20:53:57.145Z,16.25
2023-05-18T20:56:24.150Z,16.02
2023-05-18T20:58:51.264Z,16.14
2023-05-18T21:01:18.785Z,16.09
2023-05-18T21:03:47.968Z,15.87
2023-05-18T21:06:15.182Z,15.28
2023-05-18T21:08:45.458Z,15.69
2023-05-18T21:11:12.495Z,15.34
2023-05-18T21:13:39.578Z,15.11
2023-05-18T21:16:08.572Z,15.55
2023-05-18T21:18:35.955Z,15.28
2023-05-18T21:21:03.550Z,15.30
2023-05-18T21:23:30.857Z,15.38
2023-05-18T21:25:58.091Z,15.61
2023-05-18T21:28:25.235Z,14.92
2023-05-18T21:30:52.656Z,14.48
2023-05-18T21:33:20.003Z,15.09
2023-05-18T21:35:47.170Z,15.11
2023-05-18T21:38:14.372Z,15.18
2023-05-18T21:40:43.679Z,15.10
2023-05-18T21:43:11.465Z,15.17
2023-05-18T21:45:38.984Z,15.18
2023-05-18T21:48:06.457Z,14.96
2023-05-18T21:50:35.139Z,14.65
2023-05-18T21:53:03.389Z,15.02
2023-05-18T21:55:33.478Z,14.31
2023-05-18T21:58:00.801Z,13.94
2023-05-18T22:00:28.154Z,14.40
2023-05-18T22:02:55.313Z,14.05
2023-05-18T22:05:22.688Z,14.38
2023-05-18T22:07:50.320Z,14.65
2023-05-18T22:10:18.295Z,14.84
2023-05-18T22:12:45.649Z,14.46
2023-05-18T22:15:12.855Z,14.01
2023-05-18T22:17:40.456Z,14.25
2023-05-18T22:20:11.626Z,14.01
2023-05-18T22:22:40.308Z,14.55
2023-05-18T22:25:08.329Z,14.25
2023-05-18T22:27:36.901Z,14.66
2023-05-18T22:30:06.278Z,14.57
2023-05-18T22:32:33.597Z,14.78
2023-05-18T22:35:01.465Z,14.91
2023-05-18T22:37:28.647Z,14.22
2023-05-18T22:39:55.797Z,14.46
2023-05-18T22:42:22.851Z,14.60
2023-05-18T22:44:49.853Z,14.57
2023-05-18T22:47:23.640Z,14.64
2023-05-18T22:49:50.938Z,13.87
2023-05-18T22:52:18.616Z,13.70
2023-05-18T22:54:46.033Z,14.23
2023-05-18T22:57:13.246Z,14.47
2023-05-18T22:59:40.522Z,14.40
2023-05-18T23:02:07.615Z,14.57
2023-05-18T23:04:35.471Z,14.30
2023-05-18T23:07:04.222Z,14.09
2023-05-18T23:09:31.431Z,14.39
2023-05-18T23:12:01.232Z,14.64
2023-05-18T23:14:32.626Z,14.72
2023-05-18T23:17:00.380Z,14.83
2023-05-18T23:19:27.489Z,14.00
2023-05-18T23:21:54.628Z,14.38
2023-05-18T23:24:21.847Z,14.20
2023-05-18T23:26:48.951Z,13.97
2023-05-18T23:29:15.997Z,13.86
2023-05-18T23:31:43.032Z,13.93
2023-05-18T23:34:10.409Z,14.24
2023-05-18T23:36:37.395Z,13.82
2023-05-18T23:39:04.739Z,13.75
2023-05-18T23:41:31.941Z,13.53
2023-05-18T23:43:59.272Z,13.84
2023-05-18T23:46:26.703Z,13.86
2023-05-18T23:48:53.957Z,13.70
2023-05-18T23:51:21.255Z,13.87
2023-05-18T23:53:49.506Z,13.92
2023-05-18T23:56:17.075Z,13.89
2023-05-18T23:58:46.156Z,13.69
